sensor_id;sensor_type;location;lat;lon;timestamp;P1;P2;P0
77516;PMS7003;68414;53.946;27.634;2024-01-30T00:00:07;17.416666;16.500000;10.816667
77516;PMS7003;68414;53.946;27.634;2024-01-30T00:01:06;17.783333;15.366667;9.716666
77516;PMS7003;68414;53.946;27.634;2024-01-30T00:02:06;18.133333;15.783334;9.783334
77516;PMS7003;68414;53.946;27.634;2024-01-30T00:03:06;13.833333;13.600000;9.266666
77516;PMS7003;68414;53.946;27.634;2024-01-30T00:04:06;16.383333;13.483334;9.433333
77516;PMS7003;68414;53.946;27.634;2024-01-30T00:05:07;19.200001;16.833334;9.550000
77516;PMS7003;68414;53.946;27.634;2024-01-30T00:06:07;16.650000;14.866667;10.550000
77516;PMS7003;68414;53.946;27.634;2024-01-30T00:07:06;16.566668;15.750000;10.566667
77516;PMS7003;68414;53.946;27.634;2024-01-30T00:08:06;20.116667;17.016666;9.983334
77516;PMS7003;68414;53.946;27.634;2024-01-30T00:09:06;17.366667;16.483334;10.600000
77516;PMS7003;68414;53.946;27.634;2024-01-30T00:10:07;16.549999;15.333333;10.466666
77516;PMS7003;68414;53.946;27.634;2024-01-30T00:11:07;18.683332;17.083334;10.350000
77516;PMS7003;68414;53.946;27.634;2024-01-30T00:12:07;17.750000;16.816668;11.150000
77516;PMS7003;68414;53.946;27.634;2024-01-30T00:13:06;17.616667;15.433333;11.000000
77516;PMS7003;68414;53.946;27.634;2024-01-30T00:14:06;17.600000;15.333333;10.000000
77516;PMS7003;68414;53.946;27.634;2024-01-30T00:15:07;18.033333;15.950000;10.316667
77516;PMS7003;68414;53.946;27.634;2024-01-30T00:16:07;19.500000;16.500000;11.150000
77516;PMS7003;68414;53.946;27.634;2024-01-30T00:17:06;16.400000;14.000000;9.666667
77516;PMS7003;68414;53.946;27.634;2024-01-30T00:18:06;19.766666;17.933332;10.716666
77516;PMS7003;68414;53.946;27.634;2024-01-30T00:19:06;17.816668;17.116667;10.350000
77516;PMS7003;68414;53.946;27.634;2024-01-30T00:20:07;17.583334;16.416666;10.550000
77516;PMS7003;68414;53.946;27.634;2024-01-30T00:21:06;18.766666;17.066668;10.283334
77516;PMS7003;68414;53.946;27.634;2024-01-30T00:22:06;19.316668;16.650000;10.200000
77516;PMS7003;68414;53.946;27.634;2024-01-30T00:23:06;17.816668;16.200001;10.033334
77516;PMS7003;68414;53.946;27.634;2024-01-30T00:24:06;16.616667;15.250000;9.816667
77516;PMS7003;68414;53.946;27.634;2024-01-30T00:25:07;16.500000;15.950000;10.883333
77516;PMS7003;68414;53.946;27.634;2024-01-30T00:26:06;18.466667;16.100000;10.983334
77516;PMS7003;68414;53.946;27.634;2024-01-30T00:27:07;18.116667;15.416667;9.666667
77516;PMS7003;68414;53.946;27.634;2024-01-30T00:28:06;18.466667;14.466666;9.833333
77516;PMS7003;68414;53.946;27.634;2024-01-30T00:29:06;18.549999;17.616667;11.133333
77516;PMS7003;68414;53.946;27.634;2024-01-30T00:30:07;18.500000;16.483334;10.133333
77516;PMS7003;68414;53.946;27.634;2024-01-30T00:31:07;18.166666;15.916667;10.733334
77516;PMS7003;68414;53.946;27.634;2024-01-30T00:32:06;18.116667;17.400000;10.666667
77516;PMS7003;68414;53.946;27.634;2024-01-30T00:33:06;16.600000;16.266666;11.700000
77516;PMS7003;68414;53.946;27.634;2024-01-30T00:34:06;18.266666;15.283334;10.016666
77516;PMS7003;68414;53.946;27.634;2024-01-30T00:35:06;22.383333;18.966667;11.400000
77516;PMS7003;68414;53.946;27.634;2024-01-30T00:36:08;17.200001;15.766666;10.966666
77516;PMS7003;68414;53.946;27.634;2024-01-30T00:37:07;21.083334;17.833334;12.350000
77516;PMS7003;68414;53.946;27.634;2024-01-30T00:38:06;18.216667;16.666666;11.233334
77516;PMS7003;68414;53.946;27.634;2024-01-30T00:39:06;18.533333;16.466667;10.916667
77516;PMS7003;68414;53.946;27.634;2024-01-30T00:40:08;20.450001;16.716667;10.200000
77516;PMS7003;68414;53.946;27.634;2024-01-30T00:41:08;19.533333;16.616667;10.950000
77516;PMS7003;68414;53.946;27.634;2024-01-30T00:42:07;20.833334;18.616667;11.433333
77516;PMS7003;68414;53.946;27.634;2024-01-30T00:43:06;17.016666;16.200001;11.000000
77516;PMS7003;68414;53.946;27.634;2024-01-30T00:44:08;18.183332;16.916666;11.050000
77516;PMS7003;68414;53.946;27.634;2024-01-30T00:46:06;20.166666;17.583334;10.766666
77516;PMS7003;68414;53.946;27.634;2024-01-30T00:47:06;19.850000;17.933332;10.750000
77516;PMS7003;68414;53.946;27.634;2024-01-30T00:48:06;17.400000;15.450000;11.500000
77516;PMS7003;68414;53.946;27.634;2024-01-30T00:49:06;20.483334;18.799999;11.866667
77516;PMS7003;68414;53.946;27.634;2024-01-30T00:50:07;18.833334;17.583334;11.783334
77516;PMS7003;68414;53.946;27.634;2024-01-30T00:51:08;22.016666;17.400000;11.666667
77516;PMS7003;68414;53.946;27.634;2024-01-30T00:52:06;18.416666;16.500000;11.083333
77516;PMS7003;68414;53.946;27.634;2024-01-30T00:53:06;18.299999;16.683332;10.950000
77516;PMS7003;68414;53.946;27.634;2024-01-30T00:54:06;22.466667;19.116667;12.650000
77516;PMS7003;68414;53.946;27.634;2024-01-30T00:55:06;22.333334;18.916666;12.616667
77516;PMS7003;68414;53.946;27.634;2024-01-30T00:56:07;23.083334;19.116667;12.350000
77516;PMS7003;68414;53.946;27.634;2024-01-30T00:57:07;18.866667;16.700001;11.116667
77516;PMS7003;68414;53.946;27.634;2024-01-30T00:58:06;20.299999;18.950001;12.883333
77516;PMS7003;68414;53.946;27.634;2024-01-30T00:59:06;21.166666;19.799999;12.050000
77516;PMS7003;68414;53.946;27.634;2024-01-30T01:00:07;19.166666;17.633333;12.233334
77516;PMS7003;68414;53.946;27.634;2024-01-30T01:01:06;20.900000;19.783333;12.083333
77516;PMS7003;68414;53.946;27.634;2024-01-30T01:02:06;20.299999;18.250000;11.116667
77516;PMS7003;68414;53.946;27.634;2024-01-30T01:03:06;18.966667;17.500000;11.500000
77516;PMS7003;68414;53.946;27.634;2024-01-30T01:04:06;18.483334;17.133333;11.233334
77516;PMS7003;68414;53.946;27.634;2024-01-30T01:05:07;19.016666;18.383333;12.933333
77516;PMS7003;68414;53.946;27.634;2024-01-30T01:06:06;23.483334;20.866667;13.866667
77516;PMS7003;68414;53.946;27.634;2024-01-30T01:07:06;21.083334;20.916666;13.033334
77516;PMS7003;68414;53.946;27.634;2024-01-30T01:08:06;20.233334;19.200001;12.066667
77516;PMS7003;68414;53.946;27.634;2024-01-30T01:09:06;20.766666;19.183332;12.783334
77516;PMS7003;68414;53.946;27.634;2024-01-30T01:10:07;20.316668;17.633333;11.966666
77516;PMS7003;68414;53.946;27.634;2024-01-30T01:11:06;20.000000;17.950001;11.966666
77516;PMS7003;68414;53.946;27.634;2024-01-30T01:12:07;23.483334;20.733334;12.200000
77516;PMS7003;68414;53.946;27.634;2024-01-30T01:13:06;19.066668;17.516666;11.800000
77516;PMS7003;68414;53.946;27.634;2024-01-30T01:14:06;22.166666;20.049999;12.616667
77516;PMS7003;68414;53.946;27.634;2024-01-30T01:15:07;20.049999;19.466667;11.933333
77516;PMS7003;68414;53.946;27.634;2024-01-30T01:16:08;26.600000;23.533333;13.466666
77516;PMS7003;68414;53.946;27.634;2024-01-30T01:17:06;25.333334;22.916666;14.933333
77516;PMS7003;68414;53.946;27.634;2024-01-30T01:18:06;22.466667;19.783333;14.033334
77516;PMS7003;68414;53.946;27.634;2024-01-30T01:19:06;21.166666;19.533333;13.150000
77516;PMS7003;68414;53.946;27.634;2024-01-30T01:20:07;23.799999;21.883333;13.316667
77516;PMS7003;68414;53.946;27.634;2024-01-30T01:21:07;26.333334;23.900000;14.200000
77516;PMS7003;68414;53.946;27.634;2024-01-30T01:22:06;24.766666;22.633333;13.150000
77516;PMS7003;68414;53.946;27.634;2024-01-30T01:23:06;22.533333;20.016666;13.416667
77516;PMS7003;68414;53.946;27.634;2024-01-30T01:24:06;25.733334;22.616667;13.950000
77516;PMS7003;68414;53.946;27.634;2024-01-30T01:25:06;24.183332;22.350000;12.983334
77516;PMS7003;68414;53.946;27.634;2024-01-30T01:26:09;24.733334;21.916666;13.566667
77516;PMS7003;68414;53.946;27.634;2024-01-30T01:27:06;25.966667;23.383333;14.450000
77516;PMS7003;68414;53.946;27.634;2024-01-30T01:28:06;24.750000;22.350000;14.083333
77516;PMS7003;68414;53.946;27.634;2024-01-30T01:29:06;25.033333;22.283333;13.633333
77516;PMS7003;68414;53.946;27.634;2024-01-30T01:30:13;24.466667;22.283333;14.050000
77516;PMS7003;68414;53.946;27.634;2024-01-30T01:31:06;24.016666;22.633333;13.883333
77516;PMS7003;68414;53.946;27.634;2024-01-30T01:32:06;24.400000;22.600000;13.883333
77516;PMS7003;68414;53.946;27.634;2024-01-30T01:33:06;21.033333;20.299999;14.516666
77516;PMS7003;68414;53.946;27.634;2024-01-30T01:34:06;22.583334;20.950001;13.800000
77516;PMS7003;68414;53.946;27.634;2024-01-30T01:35:06;24.750000;21.583334;12.750000
77516;PMS7003;68414;53.946;27.634;2024-01-30T01:36:07;25.150000;22.883333;13.200000
77516;PMS7003;68414;53.946;27.634;2024-01-30T01:37:06;25.466667;21.566668;13.966666
77516;PMS7003;68414;53.946;27.634;2024-01-30T01:38:07;25.000000;21.299999;14.433333
77516;PMS7003;68414;53.946;27.634;2024-01-30T01:39:06;24.533333;21.633333;13.266666
77516;PMS7003;68414;53.946;27.634;2024-01-30T01:40:07;21.933332;20.650000;12.666667
77516;PMS7003;68414;53.946;27.634;2024-01-30T01:41:06;24.316668;22.966667;15.000000
77516;PMS7003;68414;53.946;27.634;2024-01-30T01:42:06;22.850000;22.316668;14.366667
77516;PMS7003;68414;53.946;27.634;2024-01-30T01:43:06;23.400000;21.600000;13.383333
77516;PMS7003;68414;53.946;27.634;2024-01-30T01:44:06;21.783333;20.750000;11.950000
77516;PMS7003;68414;53.946;27.634;2024-01-30T01:45:07;24.533333;22.250000;13.183333
77516;PMS7003;68414;53.946;27.634;2024-01-30T01:46:07;25.683332;22.549999;13.300000
77516;PMS7003;68414;53.946;27.634;2024-01-30T01:47:06;20.783333;19.350000;13.833333
77516;PMS7003;68414;53.946;27.634;2024-01-30T01:48:07;23.983334;21.066668;13.433333
77516;PMS7003;68414;53.946;27.634;2024-01-30T01:49:06;22.600000;20.833334;12.783334
77516;PMS7003;68414;53.946;27.634;2024-01-30T01:50:07;22.866667;20.933332;12.583333
77516;PMS7003;68414;53.946;27.634;2024-01-30T01:51:06;21.450001;20.700001;13.016666
77516;PMS7003;68414;53.946;27.634;2024-01-30T01:52:06;26.266666;22.466667;13.783334
77516;PMS7003;68414;53.946;27.634;2024-01-30T01:53:07;22.966667;20.799999;13.800000
77516;PMS7003;68414;53.946;27.634;2024-01-30T01:54:07;20.450001;18.416666;12.850000
77516;PMS7003;68414;53.946;27.634;2024-01-30T01:55:07;22.866667;19.283333;13.683333
77516;PMS7003;68414;53.946;27.634;2024-01-30T01:56:07;21.750000;18.866667;11.816667
77516;PMS7003;68414;53.946;27.634;2024-01-30T01:57:06;21.850000;20.883333;12.616667
77516;PMS7003;68414;53.946;27.634;2024-01-30T01:58:07;19.850000;18.533333;12.416667
77516;PMS7003;68414;53.946;27.634;2024-01-30T01:59:07;19.533333;17.549999;12.100000
77516;PMS7003;68414;53.946;27.634;2024-01-30T02:00:07;24.650000;21.716667;13.616667
77516;PMS7003;68414;53.946;27.634;2024-01-30T02:01:09;21.900000;19.216667;12.533334
77516;PMS7003;68414;53.946;27.634;2024-01-30T02:02:08;23.616667;20.316668;13.100000
77516;PMS7003;68414;53.946;27.634;2024-01-30T02:03:07;23.750000;20.750000;12.533334
77516;PMS7003;68414;53.946;27.634;2024-01-30T02:04:07;23.633333;20.950001;14.266666
77516;PMS7003;68414;53.946;27.634;2024-01-30T02:05:07;20.883333;19.366667;12.750000
77516;PMS7003;68414;53.946;27.634;2024-01-30T02:06:06;20.533333;19.350000;12.433333
77516;PMS7003;68414;53.946;27.634;2024-01-30T02:07:06;19.850000;18.566668;12.133333
77516;PMS7003;68414;53.946;27.634;2024-01-30T02:08:06;23.000000;20.799999;13.050000
77516;PMS7003;68414;53.946;27.634;2024-01-30T02:09:06;20.883333;19.450001;12.433333
77516;PMS7003;68414;53.946;27.634;2024-01-30T02:10:08;22.433332;18.416666;12.300000
77516;PMS7003;68414;53.946;27.634;2024-01-30T02:11:06;24.750000;21.450001;13.866667
77516;PMS7003;68414;53.946;27.634;2024-01-30T02:12:06;22.066668;21.016666;13.666667
77516;PMS7003;68414;53.946;27.634;2024-01-30T02:13:06;24.516666;20.816668;12.666667
77516;PMS7003;68414;53.946;27.634;2024-01-30T02:14:06;22.816668;19.833334;13.766666
77516;PMS7003;68414;53.946;27.634;2024-01-30T02:15:06;19.033333;18.299999;12.883333
77516;PMS7003;68414;53.946;27.634;2024-01-30T02:16:06;22.183332;20.233334;13.700000
77516;PMS7003;68414;53.946;27.634;2024-01-30T02:17:06;19.566668;17.783333;12.700000
77516;PMS7003;68414;53.946;27.634;2024-01-30T02:18:06;22.883333;21.033333;12.883333
77516;PMS7003;68414;53.946;27.634;2024-01-30T02:19:07;22.683332;20.116667;13.333333
77516;PMS7003;68414;53.946;27.634;2024-01-30T02:20:07;22.183332;19.600000;12.500000
77516;PMS7003;68414;53.946;27.634;2024-01-30T02:21:06;21.383333;20.049999;12.466666
77516;PMS7003;68414;53.946;27.634;2024-01-30T02:22:07;22.000000;20.266666;12.516666
77516;PMS7003;68414;53.946;27.634;2024-01-30T02:23:07;22.549999;20.299999;13.600000
77516;PMS7003;68414;53.946;27.634;2024-01-30T02:24:06;21.116667;18.883333;12.283334
77516;PMS7003;68414;53.946;27.634;2024-01-30T02:25:08;21.083334;19.516666;11.750000
77516;PMS7003;68414;53.946;27.634;2024-01-30T02:26:06;20.783333;18.616667;12.516666
77516;PMS7003;68414;53.946;27.634;2024-01-30T02:27:06;21.366667;18.883333;12.666667
77516;PMS7003;68414;53.946;27.634;2024-01-30T02:28:06;24.816668;22.850000;13.766666
77516;PMS7003;68414;53.946;27.634;2024-01-30T02:29:06;20.133333;19.233334;12.550000
77516;PMS7003;68414;53.946;27.634;2024-01-30T02:30:07;20.116667;18.183332;12.100000
77516;PMS7003;68414;53.946;27.634;2024-01-30T02:31:06;19.966667;18.733334;13.216666
77516;PMS7003;68414;53.946;27.634;2024-01-30T02:32:06;19.950001;17.916666;11.866667
77516;PMS7003;68414;53.946;27.634;2024-01-30T02:33:06;21.683332;20.750000;12.033334
77516;PMS7003;68414;53.946;27.634;2024-01-30T02:34:06;23.666666;20.533333;13.066667
77516;PMS7003;68414;53.946;27.634;2024-01-30T02:35:06;20.833334;19.283333;11.950000
77516;PMS7003;68414;53.946;27.634;2024-01-30T02:36:07;23.016666;21.266666;12.316667
77516;PMS7003;68414;53.946;27.634;2024-01-30T02:37:06;22.250000;21.033333;14.066667
77516;PMS7003;68414;53.946;27.634;2024-01-30T02:38:06;22.466667;20.783333;14.250000
77516;PMS7003;68414;53.946;27.634;2024-01-30T02:39:06;20.433332;19.016666;13.466666
77516;PMS7003;68414;53.946;27.634;2024-01-30T02:40:07;21.116667;19.016666;11.966666
77516;PMS7003;68414;53.946;27.634;2024-01-30T02:41:06;19.866667;17.516666;11.983334
77516;PMS7003;68414;53.946;27.634;2024-01-30T02:42:06;21.866667;20.583334;12.866667
77516;PMS7003;68414;53.946;27.634;2024-01-30T02:43:06;19.850000;18.866667;13.416667
77516;PMS7003;68414;53.946;27.634;2024-01-30T02:44:06;20.750000;19.116667;12.366667
77516;PMS7003;68414;53.946;27.634;2024-01-30T02:45:07;19.833334;18.616667;12.100000
77516;PMS7003;68414;53.946;27.634;2024-01-30T02:46:06;21.433332;18.450001;11.933333
77516;PMS7003;68414;53.946;27.634;2024-01-30T02:47:06;20.816668;20.416666;13.350000
77516;PMS7003;68414;53.946;27.634;2024-01-30T02:48:07;29.750000;26.049999;17.416666
77516;PMS7003;68414;53.946;27.634;2024-01-30T02:49:06;24.383333;22.716667;14.266666
77516;PMS7003;68414;53.946;27.634;2024-01-30T02:50:07;22.316668;20.549999;13.300000
77516;PMS7003;68414;53.946;27.634;2024-01-30T02:51:06;23.333334;19.416666;12.300000
77516;PMS7003;68414;53.946;27.634;2024-01-30T02:52:06;23.416666;21.233334;13.450000
77516;PMS7003;68414;53.946;27.634;2024-01-30T02:53:06;22.366667;19.416666;13.183333
77516;PMS7003;68414;53.946;27.634;2024-01-30T02:54:06;21.183332;19.433332;12.700000
77516;PMS7003;68414;53.946;27.634;2024-01-30T02:55:06;22.250000;21.400000;13.866667
77516;PMS7003;68414;53.946;27.634;2024-01-30T02:56:06;22.683332;20.766666;12.833333
77516;PMS7003;68414;53.946;27.634;2024-01-30T02:57:06;24.783333;22.433332;13.283334
77516;PMS7003;68414;53.946;27.634;2024-01-30T02:58:06;22.100000;19.850000;13.400000
77516;PMS7003;68414;53.946;27.634;2024-01-30T02:59:06;22.416666;22.016666;13.216666
77516;PMS7003;68414;53.946;27.634;2024-01-30T03:00:07;21.233334;20.033333;13.800000
77516;PMS7003;68414;53.946;27.634;2024-01-30T03:01:06;21.350000;19.833334;14.000000
77516;PMS7003;68414;53.946;27.634;2024-01-30T03:02:06;22.600000;20.549999;14.050000
77516;PMS7003;68414;53.946;27.634;2024-01-30T03:03:06;23.600000;22.216667;14.800000
77516;PMS7003;68414;53.946;27.634;2024-01-30T03:04:06;22.466667;20.083334;13.166667
77516;PMS7003;68414;53.946;27.634;2024-01-30T03:05:07;22.850000;20.200001;12.516666
77516;PMS7003;68414;53.946;27.634;2024-01-30T03:06:06;21.600000;18.400000;12.216666
77516;PMS7003;68414;53.946;27.634;2024-01-30T03:07:06;22.683332;21.250000;13.433333
77516;PMS7003;68414;53.946;27.634;2024-01-30T03:08:06;25.116667;21.366667;13.916667
77516;PMS7003;68414;53.946;27.634;2024-01-30T03:09:06;22.716667;20.866667;13.983334
77516;PMS7003;68414;53.946;27.634;2024-01-30T03:10:06;24.566668;22.766666;14.333333
77516;PMS7003;68414;53.946;27.634;2024-01-30T03:11:06;23.766666;20.783333;13.433333
77516;PMS7003;68414;53.946;27.634;2024-01-30T03:12:06;22.083334;20.400000;12.983334
77516;PMS7003;68414;53.946;27.634;2024-01-30T03:13:06;24.500000;22.400000;14.016666
77516;PMS7003;68414;53.946;27.634;2024-01-30T03:14:06;19.799999;18.299999;12.916667
77516;PMS7003;68414;53.946;27.634;2024-01-30T03:15:07;23.400000;20.833334;13.033334
77516;PMS7003;68414;53.946;27.634;2024-01-30T03:16:08;22.950001;20.533333;13.566667
77516;PMS7003;68414;53.946;27.634;2024-01-30T03:17:08;22.333334;20.983334;13.683333
77516;PMS7003;68414;53.946;27.634;2024-01-30T03:18:06;23.983334;21.916666;14.250000
77516;PMS7003;68414;53.946;27.634;2024-01-30T03:19:07;23.316668;21.700001;14.850000
77516;PMS7003;68414;53.946;27.634;2024-01-30T03:20:07;23.000000;21.216667;14.050000
77516;PMS7003;68414;53.946;27.634;2024-01-30T03:21:06;24.066668;21.883333;12.933333
77516;PMS7003;68414;53.946;27.634;2024-01-30T03:22:08;22.266666;19.750000;13.033334
77516;PMS7003;68414;53.946;27.634;2024-01-30T03:23:06;22.283333;20.333334;14.050000
77516;PMS7003;68414;53.946;27.634;2024-01-30T03:24:06;23.600000;22.650000;14.200000
77516;PMS7003;68414;53.946;27.634;2024-01-30T03:25:07;23.216667;21.350000;13.033334
77516;PMS7003;68414;53.946;27.634;2024-01-30T03:26:06;23.233334;20.166666;13.933333
77516;PMS7003;68414;53.946;27.634;2024-01-30T03:27:06;23.716667;22.366667;14.600000
77516;PMS7003;68414;53.946;27.634;2024-01-30T03:28:06;23.466667;21.283333;15.066667
77516;PMS7003;68414;53.946;27.634;2024-01-30T03:29:06;22.316668;19.816668;13.550000
77516;PMS7003;68414;53.946;27.634;2024-01-30T03:30:07;27.500000;23.283333;14.150000
77516;PMS7003;68414;53.946;27.634;2024-01-30T03:31:06;25.133333;22.299999;14.633333
77516;PMS7003;68414;53.946;27.634;2024-01-30T03:32:06;28.150000;24.216667;15.316667
77516;PMS7003;68414;53.946;27.634;2024-01-30T03:33:06;25.683332;22.000000;13.550000
77516;PMS7003;68414;53.946;27.634;2024-01-30T03:34:06;25.116667;21.799999;15.616667
77516;PMS7003;68414;53.946;27.634;2024-01-30T03:35:06;26.983334;24.816668;15.266666
77516;PMS7003;68414;53.946;27.634;2024-01-30T03:36:07;20.916666;18.549999;13.050000
77516;PMS7003;68414;53.946;27.634;2024-01-30T03:37:06;23.516666;22.183332;15.066667
77516;PMS7003;68414;53.946;27.634;2024-01-30T03:38:06;20.933332;20.133333;14.100000
77516;PMS7003;68414;53.946;27.634;2024-01-30T03:39:06;23.666666;22.483334;13.733334
77516;PMS7003;68414;53.946;27.634;2024-01-30T03:40:07;25.183332;21.166666;14.600000
77516;PMS7003;68414;53.946;27.634;2024-01-30T03:41:08;25.016666;22.916666;14.750000
77516;PMS7003;68414;53.946;27.634;2024-01-30T03:42:06;24.783333;22.650000;14.750000
77516;PMS7003;68414;53.946;27.634;2024-01-30T03:43:06;25.049999;22.533333;14.850000
77516;PMS7003;68414;53.946;27.634;2024-01-30T03:44:07;23.400000;21.633333;14.633333
77516;PMS7003;68414;53.946;27.634;2024-01-30T03:45:07;27.083334;24.816668;15.816667
77516;PMS7003;68414;53.946;27.634;2024-01-30T03:46:06;24.216667;20.516666;14.116667
77516;PMS7003;68414;53.946;27.634;2024-01-30T03:47:06;23.283333;21.433332;13.450000
77516;PMS7003;68414;53.946;27.634;2024-01-30T03:48:07;25.233334;21.633333;13.983334
77516;PMS7003;68414;53.946;27.634;2024-01-30T03:49:06;26.733334;23.650000;15.116667
77516;PMS7003;68414;53.946;27.634;2024-01-30T03:50:06;24.250000;21.783333;14.100000
77516;PMS7003;68414;53.946;27.634;2024-01-30T03:51:06;23.850000;20.883333;13.300000
77516;PMS7003;68414;53.946;27.634;2024-01-30T03:52:06;26.033333;22.966667;15.333333
77516;PMS7003;68414;53.946;27.634;2024-01-30T03:53:06;26.316668;24.483334;14.950000
77516;PMS7003;68414;53.946;27.634;2024-01-30T03:54:06;23.216667;21.100000;13.933333
77516;PMS7003;68414;53.946;27.634;2024-01-30T03:55:06;24.600000;22.900000;14.533334
77516;PMS7003;68414;53.946;27.634;2024-01-30T03:56:06;24.933332;23.666666;15.483334
77516;PMS7003;68414;53.946;27.634;2024-01-30T03:57:06;31.650000;27.100000;14.850000
77516;PMS7003;68414;53.946;27.634;2024-01-30T03:58:06;27.000000;24.783333;15.966666
77516;PMS7003;68414;53.946;27.634;2024-01-30T03:59:06;28.933332;25.566668;16.100000
77516;PMS7003;68414;53.946;27.634;2024-01-30T04:00:07;26.566668;24.366667;15.050000
77516;PMS7003;68414;53.946;27.634;2024-01-30T04:01:06;24.416666;21.616667;15.400000
77516;PMS7003;68414;53.946;27.634;2024-01-30T04:02:06;27.666666;23.750000;15.116667
77516;PMS7003;68414;53.946;27.634;2024-01-30T04:03:06;27.816668;26.216667;15.950000
77516;PMS7003;68414;53.946;27.634;2024-01-30T04:04:06;26.466667;24.916666;15.583333
77516;PMS7003;68414;53.946;27.634;2024-01-30T04:05:06;29.850000;24.900000;15.650000
77516;PMS7003;68414;53.946;27.634;2024-01-30T04:06:06;27.000000;25.083334;15.016666
77516;PMS7003;68414;53.946;27.634;2024-01-30T04:07:06;28.533333;26.283333;15.250000
77516;PMS7003;68414;53.946;27.634;2024-01-30T04:08:06;27.016666;24.900000;15.000000
77516;PMS7003;68414;53.946;27.634;2024-01-30T04:09:07;27.333334;24.883333;17.033333
77516;PMS7003;68414;53.946;27.634;2024-01-30T04:10:07;26.183332;24.033333;16.000000
77516;PMS7003;68414;53.946;27.634;2024-01-30T04:11:06;30.166666;27.116667;15.883333
77516;PMS7003;68414;53.946;27.634;2024-01-30T04:12:07;24.783333;22.183332;14.966666
77516;PMS7003;68414;53.946;27.634;2024-01-30T04:13:06;23.900000;21.900000;13.566667
77516;PMS7003;68414;53.946;27.634;2024-01-30T04:14:06;26.566668;24.799999;15.550000
77516;PMS7003;68414;53.946;27.634;2024-01-30T04:15:06;28.900000;25.549999;15.183333
77516;PMS7003;68414;53.946;27.634;2024-01-30T04:16:06;28.100000;26.483334;15.433333
77516;PMS7003;68414;53.946;27.634;2024-01-30T04:17:06;25.416666;22.933332;15.550000
77516;PMS7003;68414;53.946;27.634;2024-01-30T04:18:06;25.716667;23.950001;15.700000
77516;PMS7003;68414;53.946;27.634;2024-01-30T04:19:06;27.799999;24.750000;16.066668
77516;PMS7003;68414;53.946;27.634;2024-01-30T04:20:06;27.950001;24.766666;16.233334
77516;PMS7003;68414;53.946;27.634;2024-01-30T04:21:06;26.816668;23.799999;14.516666
77516;PMS7003;68414;53.946;27.634;2024-01-30T04:22:07;26.750000;24.483334;16.083334
77516;PMS7003;68414;53.946;27.634;2024-01-30T04:23:06;26.100000;23.900000;15.850000
77516;PMS7003;68414;53.946;27.634;2024-01-30T04:24:06;30.049999;26.283333;16.850000
77516;PMS7003;68414;53.946;27.634;2024-01-30T04:25:06;24.933332;23.100000;15.166667
77516;PMS7003;68414;53.946;27.634;2024-01-30T04:26:06;25.266666;23.450001;14.983334
77516;PMS7003;68414;53.946;27.634;2024-01-30T04:27:06;31.316668;28.150000;18.000000
77516;PMS7003;68414;53.946;27.634;2024-01-30T04:28:07;27.566668;26.299999;16.416666
77516;PMS7003;68414;53.946;27.634;2024-01-30T04:29:06;26.450001;24.200001;15.316667
77516;PMS7003;68414;53.946;27.634;2024-01-30T04:30:07;23.483334;22.566668;15.366667
77516;PMS7003;68414;53.946;27.634;2024-01-30T04:31:06;26.000000;23.283333;15.166667
77516;PMS7003;68414;53.946;27.634;2024-01-30T04:32:06;29.483334;28.216667;16.733334
77516;PMS7003;68414;53.946;27.634;2024-01-30T04:33:06;28.400000;27.250000;15.883333
77516;PMS7003;68414;53.946;27.634;2024-01-30T04:34:06;30.650000;25.916666;16.666666
77516;PMS7003;68414;53.946;27.634;2024-01-30T04:35:07;27.000000;25.650000;16.066668
77516;PMS7003;68414;53.946;27.634;2024-01-30T04:36:08;27.650000;26.466667;15.816667
77516;PMS7003;68414;53.946;27.634;2024-01-30T04:37:06;27.283333;25.833334;16.516666
77516;PMS7003;68414;53.946;27.634;2024-01-30T04:38:06;30.833334;29.066668;16.966667
77516;PMS7003;68414;53.946;27.634;2024-01-30T04:39:06;29.700001;26.333334;15.633333
77516;PMS7003;68414;53.946;27.634;2024-01-30T04:40:07;29.316668;25.033333;15.866667
77516;PMS7003;68414;53.946;27.634;2024-01-30T04:41:06;29.850000;27.450001;16.600000
77516;PMS7003;68414;53.946;27.634;2024-01-30T04:42:06;29.450001;25.833334;16.566668
77516;PMS7003;68414;53.946;27.634;2024-01-30T04:43:06;28.383333;24.266666;16.700001
77516;PMS7003;68414;53.946;27.634;2024-01-30T04:44:06;30.616667;26.266666;16.566668
77516;PMS7003;68414;53.946;27.634;2024-01-30T04:45:06;27.049999;23.866667;15.883333